sensor_id;sensor_type;location;lat;lon;timestamp;P1;durP1;ratioP1;P2;durP2;ratioP2
79583;SDS011;69053;57.338;18.700;2024-02-26T00:02:10;2.97;;;1.80;;
79583;SDS011;69053;57.338;18.700;2024-02-26T00:05:11;4.60;;;2.60;;
79583;SDS011;69053;57.338;18.700;2024-02-26T00:08:11;5.82;;;2.63;;
79583;SDS011;69053;57.338;18.700;2024-02-26T00:11:12;5.38;;;2.72;;
79583;SDS011;69053;57.338;18.700;2024-02-26T00:14:12;7.38;;;3.60;;
79583;SDS011;69053;57.338;18.700;2024-02-26T00:17:13;6.80;;;3.55;;
79583;SDS011;69053;57.338;18.700;2024-02-26T00:20:14;6.95;;;3.33;;
79583;SDS011;69053;57.338;18.700;2024-02-26T00:23:15;7.15;;;2.85;;
79583;SDS011;69053;57.338;18.700;2024-02-26T00:26:15;5.43;;;2.65;;
79583;SDS011;69053;57.338;18.700;2024-02-26T00:29:16;4.82;;;2.65;;
79583;SDS011;69053;57.338;18.700;2024-02-26T00:32:16;6.00;;;2.50;;
79583;SDS011;69053;57.338;18.700;2024-02-26T00:35:17;4.70;;;2.85;;
79583;SDS011;69053;57.338;18.700;2024-02-26T00:38:20;6.95;;;2.92;;
79583;SDS011;69053;57.338;18.700;2024-02-26T00:41:20;5.05;;;2.60;;
79583;SDS011;69053;57.338;18.700;2024-02-26T00:44:21;5.15;;;3.08;;
79583;SDS011;69053;57.338;18.700;2024-02-26T00:47:22;9.18;;;3.78;;
79583;SDS011;69053;57.338;18.700;2024-02-26T00:50:22;5.43;;;3.03;;
79583;SDS011;69053;57.338;18.700;2024-02-26T00:53:22;9.30;;;3.90;;
79583;SDS011;69053;57.338;18.700;2024-02-26T00:56:25;6.22;;;3.45;;
79583;SDS011;69053;57.338;18.700;2024-02-26T00:59:25;7.53;;;3.35;;
79583;SDS011;69053;57.338;18.700;2024-02-26T01:02:26;6.18;;;3.53;;
79583;SDS011;69053;57.338;18.700;2024-02-26T01:05:26;6.55;;;4.38;;
79583;SDS011;69053;57.338;18.700;2024-02-26T01:08:27;7.03;;;3.53;;
79583;SDS011;69053;57.338;18.700;2024-02-26T01:11:27;6.28;;;3.42;;
79583;SDS011;69053;57.338;18.700;2024-02-26T01:14:28;7.97;;;3.78;;
79583;SDS011;69053;57.338;18.700;2024-02-26T01:17:28;6.85;;;3.22;;
79583;SDS011;69053;57.338;18.700;2024-02-26T01:20:29;6.22;;;3.45;;
79583;SDS011;69053;57.338;18.700;2024-02-26T01:23:29;7.18;;;3.90;;
79583;SDS011;69053;57.338;18.700;2024-02-26T01:26:30;6.55;;;3.10;;
79583;SDS011;69053;57.338;18.700;2024-02-26T01:29:33;7.32;;;3.20;;
79583;SDS011;69053;57.338;18.700;2024-02-26T01:32:34;4.90;;;3.42;;
79583;SDS011;69053;57.338;18.700;2024-02-26T01:35:36;6.18;;;2.67;;
79583;SDS011;69053;57.338;18.700;2024-02-26T01:38:36;5.72;;;3.08;;
79583;SDS011;69053;57.338;18.700;2024-02-26T01:41:36;8.23;;;4.13;;
79583;SDS011;69053;57.338;18.700;2024-02-26T01:44:37;4.78;;;2.95;;
79583;SDS011;69053;57.338;18.700;2024-02-26T01:47:38;6.85;;;3.40;;
79583;SDS011;69053;57.338;18.700;2024-02-26T01:50:38;5.03;;;2.97;;
79583;SDS011;69053;57.338;18.700;2024-02-26T01:53:40;8.35;;;3.38;;
79583;SDS011;69053;57.338;18.700;2024-02-26T01:56:41;9.27;;;3.22;;
79583;SDS011;69053;57.338;18.700;2024-02-26T01:59:41;5.60;;;3.40;;
79583;SDS011;69053;57.338;18.700;2024-02-26T02:02:42;6.78;;;3.40;;
79583;SDS011;69053;57.338;18.700;2024-02-26T02:05:44;4.93;;;2.83;;
79583;SDS011;69053;57.338;18.700;2024-02-26T02:08:45;6.53;;;2.90;;
79583;SDS011;69053;57.338;18.700;2024-02-26T02:11:46;5.47;;;3.10;;
79583;SDS011;69053;57.338;18.700;2024-02-26T02:14:48;7.80;;;3.13;;
79583;SDS011;69053;57.338;18.700;2024-02-26T02:17:49;6.25;;;2.85;;
79583;SDS011;69053;57.338;18.700;2024-02-26T02:20:49;5.82;;;3.00;;
79583;SDS011;69053;57.338;18.700;2024-02-26T02:23:50;6.65;;;3.35;;
79583;SDS011;69053;57.338;18.700;2024-02-26T02:26:50;5.97;;;2.75;;
79583;SDS011;69053;57.338;18.700;2024-02-26T02:29:51;5.30;;;3.30;;
79583;SDS011;69053;57.338;18.700;2024-02-26T02:32:52;6.40;;;3.55;;
79583;SDS011;69053;57.338;18.700;2024-02-26T02:35:53;7.10;;;3.47;;
79583;SDS011;69053;57.338;18.700;2024-02-26T02:38:55;5.85;;;3.03;;
79583;SDS011;69053;57.338;18.700;2024-02-26T02:41:55;7.20;;;3.33;;
79583;SDS011;69053;57.338;18.700;2024-02-26T02:44:56;6.78;;;3.20;;
79583;SDS011;69053;57.338;18.700;2024-02-26T02:47:56;6.45;;;2.70;;
79583;SDS011;69053;57.338;18.700;2024-02-26T02:50:57;4.15;;;2.97;;
79583;SDS011;69053;57.338;18.700;2024-02-26T02:53:57;7.88;;;3.75;;
79583;SDS011;69053;57.338;18.700;2024-02-26T02:56:57;7.60;;;4.13;;
79583;SDS011;69053;57.338;18.700;2024-02-26T02:59:58;8.38;;;4.03;;
79583;SDS011;69053;57.338;18.700;2024-02-26T03:02:58;9.88;;;3.83;;
79583;SDS011;69053;57.338;18.700;2024-02-26T03:05:59;6.78;;;3.80;;
79583;SDS011;69053;57.338;18.700;2024-02-26T03:08:59;8.43;;;3.72;;
79583;SDS011;69053;57.338;18.700;2024-02-26T03:12:01;6.88;;;3.47;;
79583;SDS011;69053;57.338;18.700;2024-02-26T03:15:01;7.80;;;4.30;;
79583;SDS011;69053;57.338;18.700;2024-02-26T03:18:02;8.48;;;4.30;;
79583;SDS011;69053;57.338;18.700;2024-02-26T03:21:03;9.43;;;4.03;;
79583;SDS011;69053;57.338;18.700;2024-02-26T03:24:04;7.78;;;4.25;;
79583;SDS011;69053;57.338;18.700;2024-02-26T03:27:04;9.23;;;4.30;;
79583;SDS011;69053;57.338;18.700;2024-02-26T03:30:09;10.25;;;4.68;;
79583;SDS011;69053;57.338;18.700;2024-02-26T03:33:10;9.40;;;4.07;;
79583;SDS011;69053;57.338;18.700;2024-02-26T03:36:10;8.05;;;4.10;;
79583;SDS011;69053;57.338;18.700;2024-02-26T03:39:11;7.22;;;3.50;;
79583;SDS011;69053;57.338;18.700;2024-02-26T03:42:11;7.53;;;4.30;;
79583;SDS011;69053;57.338;18.700;2024-02-26T03:45:12;8.15;;;4.20;;
79583;SDS011;69053;57.338;18.700;2024-02-26T03:48:12;7.45;;;3.92;;
79583;SDS011;69053;57.338;18.700;2024-02-26T03:51:13;6.93;;;3.67;;
79583;SDS011;69053;57.338;18.700;2024-02-26T03:54:13;10.75;;;4.22;;
79583;SDS011;69053;57.338;18.700;2024-02-26T03:57:14;11.57;;;5.45;;
79583;SDS011;69053;57.338;18.700;2024-02-26T04:00:14;10.85;;;5.55;;
79583;SDS011;69053;57.338;18.700;2024-02-26T04:03:15;9.65;;;5.65;;
79583;SDS011;69053;57.338;18.700;2024-02-26T04:06:16;10.50;;;4.95;;
79583;SDS011;69053;57.338;18.700;2024-02-26T04:09:19;9.98;;;4.82;;
79583;SDS011;69053;57.338;18.700;2024-02-26T04:12:20;17.20;;;5.95;;
79583;SDS011;69053;57.338;18.700;2024-02-26T04:15:20;12.23;;;4.97;;
79583;SDS011;69053;57.338;18.700;2024-02-26T04:18:20;8.50;;;4.53;;
79583;SDS011;69053;57.338;18.700;2024-02-26T04:21:21;8.20;;;4.47;;
79583;SDS011;69053;57.338;18.700;2024-02-26T04:24:21;8.02;;;4.00;;
79583;SDS011;69053;57.338;18.700;2024-02-26T04:27:22;7.85;;;3.67;;
79583;SDS011;69053;57.338;18.700;2024-02-26T04:30:22;8.45;;;3.60;;
79583;SDS011;69053;57.338;18.700;2024-02-26T04:33:22;9.30;;;4.35;;
79583;SDS011;69053;57.338;18.700;2024-02-26T04:36:23;9.40;;;4.95;;
79583;SDS011;69053;57.338;18.700;2024-02-26T04:39:24;8.45;;;4.13;;
79583;SDS011;69053;57.338;18.700;2024-02-26T04:42:24;12.02;;;4.78;;
79583;SDS011;69053;57.338;18.700;2024-02-26T04:45:24;38.05;;;5.63;;
79583;SDS011;69053;57.338;18.700;2024-02-26T04:48:26;8.88;;;4.18;;
79583;SDS011;69053;57.338;18.700;2024-02-26T04:51:27;27.17;;;5.03;;
79583;SDS011;69053;57.338;18.700;2024-02-26T04:54:28;40.85;;;5.30;;
79583;SDS011;69053;57.338;18.700;2024-02-26T04:57:28;50.30;;;6.32;;
79583;SDS011;69053;57.338;18.700;2024-02-26T05:00:29;36.15;;;6.43;;
79583;SDS011;69053;57.338;18.700;2024-02-26T05:03:29;25.40;;;5.45;;
79583;SDS011;69053;57.338;18.700;2024-02-26T05:06:30;29.05;;;6.85;;
79583;SDS011;69053;57.338;18.700;2024-02-26T05:09:31;38.05;;;6.07;;
79583;SDS011;69053;57.338;18.700;2024-02-26T05:12:32;21.60;;;5.05;;
79583;SDS011;69053;57.338;18.700;2024-02-26T05:15:35;19.95;;;4.57;;
79583;SDS011;69053;57.338;18.700;2024-02-26T05:18:36;14.93;;;4.82;;
79583;SDS011;69053;57.338;18.700;2024-02-26T05:21:36;13.90;;;4.40;;
79583;SDS011;69053;57.338;18.700;2024-02-26T05:24:37;24.25;;;4.75;;
79583;SDS011;69053;57.338;18.700;2024-02-26T05:27:38;15.73;;;4.45;;
79583;SDS011;69053;57.338;18.700;2024-02-26T05:30:39;18.35;;;5.35;;
79583;SDS011;69053;57.338;18.700;2024-02-26T05:33:40;25.25;;;4.95;;
79583;SDS011;69053;57.338;18.700;2024-02-26T05:36:40;48.08;;;5.95;;
79583;SDS011;69053;57.338;18.700;2024-02-26T05:39:41;16.58;;;5.05;;
79583;SDS011;69053;57.338;18.700;2024-02-26T05:42:41;49.50;;;5.85;;
79583;SDS011;69053;57.338;18.700;2024-02-26T05:45:44;38.50;;;5.75;;
79583;SDS011;69053;57.338;18.700;2024-02-26T05:48:44;23.05;;;5.75;;
79583;SDS011;69053;57.338;18.700;2024-02-26T05:51:49;14.45;;;5.47;;
79583;SDS011;69053;57.338;18.700;2024-02-26T05:54:49;30.67;;;5.55;;
79583;SDS011;69053;57.338;18.700;2024-02-26T05:57:50;10.73;;;4.85;;
79583;SDS011;69053;57.338;18.700;2024-02-26T06:00:50;16.05;;;4.68;;
79583;SDS011;69053;57.338;18.700;2024-02-26T06:03:51;18.83;;;5.57;;
79583;SDS011;69053;57.338;18.700;2024-02-26T06:06:51;72.50;;;6.95;;
79583;SDS011;69053;57.338;18.700;2024-02-26T06:09:52;52.80;;;7.95;;
79583;SDS011;69053;57.338;18.700;2024-02-26T06:12:52;29.67;;;6.10;;
79583;SDS011;69053;57.338;18.700;2024-02-26T06:15:53;36.00;;;6.43;;
79583;SDS011;69053;57.338;18.700;2024-02-26T06:18:53;27.15;;;7.13;;
79583;SDS011;69053;57.338;18.700;2024-02-26T06:21:53;68.97;;;7.88;;
79583;SDS011;69053;57.338;18.700;2024-02-26T06:24:54;50.95;;;7.22;;
79583;SDS011;69053;57.338;18.700;2024-02-26T06:27:54;70.38;;;8.13;;
79583;SDS011;69053;57.338;18.700;2024-02-26T06:30:55;104.63;;;9.20;;
79583;SDS011;69053;57.338;18.700;2024-02-26T06:33:56;91.72;;;9.02;;
79583;SDS011;69053;57.338;18.700;2024-02-26T06:36:56;90.53;;;9.70;;
79583;SDS011;69053;57.338;18.700;2024-02-26T06:39:57;62.53;;;8.40;;
79583;SDS011;69053;57.338;18.700;2024-02-26T06:42:57;30.02;;;6.20;;
79583;SDS011;69053;57.338;18.700;2024-02-26T06:45:58;70.45;;;8.60;;
79583;SDS011;69053;57.338;18.700;2024-02-26T06:48:58;76.20;;;9.35;;
79583;SDS011;69053;57.338;18.700;2024-02-26T06:51:59;90.50;;;8.98;;
79583;SDS011;69053;57.338;18.700;2024-02-26T06:54:59;72.63;;;7.47;;
79583;SDS011;69053;57.338;18.700;2024-02-26T06:58:00;55.97;;;7.65;;
79583;SDS011;69053;57.338;18.700;2024-02-26T07:01:00;74.32;;;9.10;;
79583;SDS011;69053;57.338;18.700;2024-02-26T07:04:01;89.00;;;9.82;;
79583;SDS011;69053;57.338;18.700;2024-02-26T07:07:01;127.85;;;11.93;;
79583;SDS011;69053;57.338;18.700;2024-02-26T07:10:02;103.53;;;10.20;;
79583;SDS011;69053;57.338;18.700;2024-02-26T07:13:05;74.05;;;9.27;;
79583;SDS011;69053;57.338;18.700;2024-02-26T07:16:08;141.32;;;12.23;;
79583;SDS011;69053;57.338;18.700;2024-02-26T07:19:09;105.50;;;11.90;;
79583;SDS011;69053;57.338;18.700;2024-02-26T07:22:09;117.55;;;10.52;;
79583;SDS011;69053;57.338;18.700;2024-02-26T07:25:10;115.45;;;11.07;;
79583;SDS011;69053;57.338;18.700;2024-02-26T07:28:13;77.35;;;9.65;;
79583;SDS011;69053;57.338;18.700;2024-02-26T07:31:13;151.73;;;14.95;;
79583;SDS011;69053;57.338;18.700;2024-02-26T07:34:14;35.35;;;8.60;;
79583;SDS011;69053;57.338;18.700;2024-02-26T07:37:14;93.47;;;11.25;;
79583;SDS011;69053;57.338;18.700;2024-02-26T07:40:15;129.13;;;12.15;;
79583;SDS011;69053;57.338;18.700;2024-02-26T07:43:15;85.85;;;9.10;;
79583;SDS011;69053;57.338;18.700;2024-02-26T07:46:16;61.38;;;8.82;;
79583;SDS011;69053;57.338;18.700;2024-02-26T07:49:16;113.53;;;12.55;;
79583;SDS011;69053;57.338;18.700;2024-02-26T07:52:17;99.53;;;11.18;;
79583;SDS011;69053;57.338;18.700;2024-02-26T07:55:17;111.32;;;12.75;;
79583;SDS011;69053;57.338;18.700;2024-02-26T07:58:18;150.52;;;17.98;;
79583;SDS011;69053;57.338;18.700;2024-02-26T08:01:18;56.70;;;9.93;;
79583;SDS011;69053;57.338;18.700;2024-02-26T08:04:20;73.15;;;9.23;;
79583;SDS011;69053;57.338;18.700;2024-02-26T08:07:20;112.75;;;13.85;;
79583;SDS011;69053;57.338;18.700;2024-02-26T08:10:21;68.75;;;12.30;;
79583;SDS011;69053;57.338;18.700;2024-02-26T08:13:21;38.42;;;8.38;;
79583;SDS011;69053;57.338;18.700;2024-02-26T08:16:22;127.18;;;14.63;;
79583;SDS011;69053;57.338;18.700;2024-02-26T08:19:22;123.88;;;15.48;;
79583;SDS011;69053;57.338;18.700;2024-02-26T08:22:23;109.35;;;13.88;;
79583;SDS011;69053;57.338;18.700;2024-02-26T08:25:23;60.40;;;9.68;;
79583;SDS011;69053;57.338;18.700;2024-02-26T08:28:25;70.75;;;12.30;;
79583;SDS011;69053;57.338;18.700;2024-02-26T08:31:25;56.03;;;9.70;;
79583;SDS011;69053;57.338;18.700;2024-02-26T08:34:27;27.08;;;8.18;;
79583;SDS011;69053;57.338;18.700;2024-02-26T08:37:27;21.48;;;7.43;;
79583;SDS011;69053;57.338;18.700;2024-02-26T08:40:28;48.08;;;11.88;;
79583;SDS011;69053;57.338;18.700;2024-02-26T08:43:29;32.72;;;9.45;;
79583;SDS011;69053;57.338;18.700;2024-02-26T08:46:29;38.95;;;10.38;;
79583;SDS011;69053;57.338;18.700;2024-02-26T08:49:30;30.95;;;9.55;;
79583;SDS011;69053;57.338;18.700;2024-02-26T08:52:31;28.63;;;8.05;;
79583;SDS011;69053;57.338;18.700;2024-02-26T08:55:32;21.77;;;8.07;;
79583;SDS011;69053;57.338;18.700;2024-02-26T08:58:32;22.00;;;7.63;;
79583;SDS011;69053;57.338;18.700;2024-02-26T09:01:32;20.17;;;7.13;;
79583;SDS011;69053;57.338;18.700;2024-02-26T09:04:33;23.35;;;7.63;;
79583;SDS011;69053;57.338;18.700;2024-02-26T09:07:34;25.23;;;9.07;;
79583;SDS011;69053;57.338;18.700;2024-02-26T09:10:34;26.15;;;7.85;;
79583;SDS011;69053;57.338;18.700;2024-02-26T09:13:35;28.30;;;9.55;;
79583;SDS011;69053;57.338;18.700;2024-02-26T09:16:35;20.52;;;8.15;;
79583;SDS011;69053;57.338;18.700;2024-02-26T09:19:35;21.70;;;8.68;;
79583;SDS011;69053;57.338;18.700;2024-02-26T09:22:37;19.25;;;7.45;;
79583;SDS011;69053;57.338;18.700;2024-02-26T09:25:38;14.23;;;6.82;;
79583;SDS011;69053;57.338;18.700;2024-02-26T09:28:38;20.60;;;7.70;;
79583;SDS011;69053;57.338;18.700;2024-02-26T09:31:39;16.90;;;7.85;;
79583;SDS011;69053;57.338;18.700;2024-02-26T09:34:41;13.00;;;6.43;;
79583;SDS011;69053;57.338;18.700;2024-02-26T09:37:41;20.60;;;8.27;;
79583;SDS011;69053;57.338;18.700;2024-02-26T09:40:43;15.10;;;7.90;;
79583;SDS011;69053;57.338;18.700;2024-02-26T09:43:44;13.77;;;7.15;;
79583;SDS011;69053;57.338;18.700;2024-02-26T09:46:47;12.93;;;7.13;;
79583;SDS011;69053;57.338;18.700;2024-02-26T09:49:49;11.43;;;6.13;;
79583;SDS011;69053;57.338;18.700;2024-02-26T09:52:52;11.88;;;5.57;;
79583;SDS011;69053;57.338;18.700;2024-02-26T09:55:54;9.77;;;5.40;;
79583;SDS011;69053;57.338;18.700;2024-02-26T09:58:54;9.30;;;5.45;;
79583;SDS011;69053;57.338;18.700;2024-02-26T10:01:56;8.73;;;5.43;;
79583;SDS011;69053;57.338;18.700;2024-02-26T10:04:59;10.23;;;5.88;;
79583;SDS011;69053;57.338;18.700;2024-02-26T10:08:05;10.18;;;5.72;;
79583;SDS011;69053;57.338;18.700;2024-02-26T10:11:06;9.05;;;4.88;;
79583;SDS011;69053;57.338;18.700;2024-02-26T10:14:08;10.60;;;6.20;;
79583;SDS011;69053;57.338;18.700;2024-02-26T10:17:08;7.10;;;4.13;;
79583;SDS011;69053;57.338;18.700;2024-02-26T10:20:12;5.65;;;3.05;;
79583;SDS011;69053;57.338;18.700;2024-02-26T10:23:17;5.53;;;3.10;;
79583;SDS011;69053;57.338;18.700;2024-02-26T10:26:18;6.88;;;3.72;;
79583;SDS011;69053;57.338;18.700;2024-02-26T10:29:19;7.30;;;4.07;;
79583;SDS011;69053;57.338;18.700;2024-02-26T10:32:20;8.55;;;4.25;;
79583;SDS011;69053;57.338;18.700;2024-02-26T10:35:20;6.05;;;3.75;;
79583;SDS011;69053;57.338;18.700;2024-02-26T10:38:22;8.38;;;3.63;;
79583;SDS011;69053;57.338;18.700;2024-02-26T10:41:22;6.05;;;3.50;;
79583;SDS011;69053;57.338;18.700;2024-02-26T10:44:23;7.18;;;4.05;;
79583;SDS011;69053;57.338;18.700;2024-02-26T10:47:26;8.00;;;4.60;;
79583;SDS011;69053;57.338;18.700;2024-02-26T10:50:26;6.25;;;3.97;;
79583;SDS011;69053;57.338;18.700;2024-02-26T10:53:28;6.55;;;3.53;;
79583;SDS011;69053;57.338;18.700;2024-02-26T10:56:29;7.25;;;3.70;;
79583;SDS011;69053;57.338;18.700;2024-02-26T10:59:34;5.47;;;3.40;;
79583;SDS011;69053;57.338;18.700;2024-02-26T11:02:36;5.22;;;3.30;;
79583;SDS011;69053;57.338;18.700;2024-02-26T11:05:36;4.75;;;3.15;;
79583;SDS011;69053;57.338;18.700;2024-02-26T11:08:39;4.97;;;3.05;;
79583;SDS011;69053;57.338;18.700;2024-02-26T11:11:40;5.85;;;2.92;;
79583;SDS011;69053;57.338;18.700;2024-02-26T11:14:41;6.55;;;3.35;;
79583;SDS011;69053;57.338;18.700;2024-02-26T11:17:44;5.43;;;3.42;;
79583;SDS011;69053;57.338;18.700;2024-02-26T11:20:46;5.32;;;3.83;;
79583;SDS011;69053;57.338;18.700;2024-02-26T11:23:49;4.43;;;2.58;;
79583;SDS011;69053;57.338;18.700;2024-02-26T11:26:53;3.85;;;2.20;;
79583;SDS011;69053;57.338;18.700;2024-02-26T11:29:59;5.15;;;2.00;;
79583;SDS011;69053;57.338;18.700;2024-02-26T11:33:01;2.97;;;1.88;;
79583;SDS011;69053;57.338;18.700;2024-02-26T11:36:11;2.95;;;1.67;;
79583;SDS011;69053;57.338;18.700;2024-02-26T11:39:12;3.20;;;1.70;;
79583;SDS011;69053;57.338;18.700;2024-02-26T11:42:15;3.45;;;1.95;;
79583;SDS011;69053;57.338;18.700;2024-02-26T11:48:42;3.13;;;1.73;;
79583;SDS011;69053;57.338;18.700;2024-02-26T11:51:43;3.75;;;2.10;;
79583;SDS011;69053;57.338;18.700;2024-02-26T11:54:51;9.18;;;2.60;;
79583;SDS011;69053;57.338;18.700;2024-02-26T11:57:53;4.03;;;2.20;;
79583;SDS011;69053;57.338;18.700;2024-02-26T12:00:55;4.57;;;1.88;;
79583;SDS011;69053;57.338;18.700;2024-02-26T12:03:57;4.80;;;2.10;;
79583;SDS011;69053;57.338;18.700;2024-02-26T12:07:00;2.83;;;1.67;;
79583;SDS011;69053;57.338;18.700;2024-02-26T12:10:13;8.52;;;1.63;;
79583;SDS011;69053;57.338;18.700;2024-02-26T12:13:29;12.45;;;2.15;;
79583;SDS011;69053;57.338;18.700;2024-02-26T12:19:40;7.07;;;1.33;;
79583;SDS011;69053;57.338;18.700;2024-02-26T12:22:40;3.08;;;1.65;;
79583;SDS011;69053;57.338;18.700;2024-02-26T12:25:44;3.42;;;1.85;;
79583;SDS011;69053;57.338;18.700;2024-02-26T12:28:48;3.42;;;1.90;;
79583;SDS011;69053;57.338;18.700;2024-02-26T12:31:48;3.15;;;1.77;;
79583;SDS011;69053;57.338;18.700;2024-02-26T12:34:49;2.53;;;1.80;;
79583;SDS011;69053;57.338;18.700;2024-02-26T12:37:49;2.40;;;1.80;;
79583;SDS011;69053;57.338;18.700;2024-02-26T12:40:51;2.83;;;1.60;;
79583;SDS011;69053;57.338;18.700;2024-02-26T12:43:53;3.25;;;2.40;;
79583;SDS011;69053;57.338;18.700;2024-02-26T12:47:03;2.55;;;1.48;;
79583;SDS011;69053;57.338;18.700;2024-02-26T12:50:05;3.22;;;1.45;;
79583;SDS011;69053;57.338;18.700;2024-02-26T12:53:06;4.20;;;1.83;;
79583;SDS011;69053;57.338;18.700;2024-02-26T12:56:09;6.05;;;2.00;;
79583;SDS011;69053;57.338;18.700;2024-02-26T12:59:12;3.13;;;1.83;;
79583;SDS011;69053;57.338;18.700;2024-02-26T13:02:12;3.63;;;1.92;;
79583;SDS011;69053;57.338;18.700;2024-02-26T13:05:13;4.68;;;2.10;;
79583;SDS011;69053;57.338;18.700;2024-02-26T13:08:19;4.28;;;2.50;;
79583;SDS011;69053;57.338;18.700;2024-02-26T13:11:20;4.18;;;1.73;;
79583;SDS011;69053;57.338;18.700;2024-02-26T13:14:21;3.25;;;2.05;;
79583;SDS011;69053;57.338;18.700;2024-02-26T13:17:21;4.60;;;2.08;;
79583;SDS011;69053;57.338;18.700;2024-02-26T13:20:25;4.22;;;2.35;;
79583;SDS011;69053;57.338;18.700;2024-02-26T13:23:28;4.75;;;2.33;;
79583;SDS011;69053;57.338;18.700;2024-02-26T13:26:28;3.58;;;2.10;;
79583;SDS011;69053;57.338;18.700;2024-02-26T13:29:29;5.03;;;1.98;;
79583;SDS011;69053;57.338;18.700;2024-02-26T13:32:29;3.20;;;1.88;;
79583;SDS011;69053;57.338;18.700;2024-02-26T13:35:32;2.75;;;1.65;;
79583;SDS011;69053;57.338;18.700;2024-02-26T13:38:35;3.15;;;1.70;;
79583;SDS011;69053;57.338;18.700;2024-02-26T13:41:35;3.00;;;1.73;;
79583;SDS011;69053;57.338;18.700;2024-02-26T13:44:35;4.65;;;2.28;;
79583;SDS011;69053;57.338;18.700;2024-02-26T13:47:39;3.92;;;2.20;;
79583;SDS011;69053;57.338;18.700;2024-02-26T13:50:41;3.15;;;1.88;;
79583;SDS011;69053;57.338;18.700;2024-02-26T13:53:45;6.00;;;2.05;;
79583;SDS011;69053;57.338;18.700;2024-02-26T13:56:45;3.28;;;1.70;;
79583;SDS011;69053;57.338;18.700;2024-02-26T13:59:46;3.35;;;1.70;;
79583;SDS011;69053;57.338;18.700;2024-02-26T14:02:47;5.25;;;2.30;;
79583;SDS011;69053;57.338;18.700;2024-02-26T14:05:48;4.22;;;2.25;;
79583;SDS011;69053;57.338;18.700;2024-02-26T14:08:48;4.15;;;2.40;;
79583;SDS011;69053;57.338;18.700;2024-02-26T14:11:49;4.45;;;2.15;;
79583;SDS011;69053;57.338;18.700;2024-02-26T14:14:49;4.30;;;2.20;;
79583;SDS011;69053;57.338;18.700;2024-02-26T14:17:52;3.72;;;2.20;;
79583;SDS011;69053;57.338;18.700;2024-02-26T14:20:56;3.88;;;2.50;;
79583;SDS011;69053;57.338;18.700;2024-02-26T14:23:56;4.32;;;2.35;;
79583;SDS011;69053;57.338;18.700;2024-02-26T14:26:57;4.50;;;2.50;;
79583;SDS011;69053;57.338;18.700;2024-02-26T14:29:57;4.35;;;2.33;;
79583;SDS011;69053;57.338;18.700;2024-02-26T14:32:57;3.97;;;1.90;;
79583;SDS011;69053;57.338;18.700;2024-02-26T14:35:58;3.47;;;1.88;;
79583;SDS011;69053;57.338;18.700;2024-02-26T14:38:58;3.25;;;2.25;;
79583;SDS011;69053;57.338;18.700;2024-02-26T14:41:59;4.43;;;2.38;;
79583;SDS011;69053;57.338;18.700;2024-02-26T14:45:00;5.32;;;2.17;;
79583;SDS011;69053;57.338;18.700;2024-02-26T14:48:00;3.63;;;2.15;;
79583;SDS011;69053;57.338;18.700;2024-02-26T14:51:01;4.80;;;2.70;;
79583;SDS011;69053;57.338;18.700;2024-02-26T14:54:01;4.38;;;2.80;;
79583;SDS011;69053;57.338;18.700;2024-02-26T14:57:05;4.07;;;2.42;;
79583;SDS011;69053;57.338;18.700;2024-02-26T15:00:09;5.15;;;2.63;;
79583;SDS011;69053;57.338;18.700;2024-02-26T15:03:10;4.72;;;2.88;;
79583;SDS011;69053;57.338;18.700;2024-02-26T15:06:10;5.68;;;2.90;;
79583;SDS011;69053;57.338;18.700;2024-02-26T15:09:11;5.50;;;3.70;;
79583;SDS011;69053;57.338;18.700;2024-02-26T15:12:11;4.38;;;2.70;;
79583;SDS011;69053;57.338;18.700;2024-02-26T15:15:11;3.20;;;2.13;;
79583;SDS011;69053;57.338;18.700;2024-02-26T15:18:12;3.13;;;1.80;;
79583;SDS011;69053;57.338;18.700;2024-02-26T15:21:15;3.05;;;1.63;;
79583;SDS011;69053;57.338;18.700;2024-02-26T15:24:16;1.77;;;1.13;;
79583;SDS011;69053;57.338;18.700;2024-02-26T15:27:17;2.35;;;1.38;;
79583;SDS011;69053;57.338;18.700;2024-02-26T15:30:18;2.70;;;1.30;;
79583;SDS011;69053;57.338;18.700;2024-02-26T15:33:18;3.25;;;1.30;;
79583;SDS011;69053;57.338;18.700;2024-02-26T15:36:18;3.70;;;1.17;;
79583;SDS011;69053;57.338;18.700;2024-02-26T15:39:19;3.08;;;1.45;;
79583;SDS011;69053;57.338;18.700;2024-02-26T15:42:21;2.28;;;1.33;;
79583;SDS011;69053;57.338;18.700;2024-02-26T15:45:21;2.83;;;1.70;;
79583;SDS011;69053;57.338;18.700;2024-02-26T15:48:24;3.50;;;1.50;;
79583;SDS011;69053;57.338;18.700;2024-02-26T15:51:25;3.70;;;1.80;;
79583;SDS011;69053;57.338;18.700;2024-02-26T15:54:25;3.22;;;2.10;;
79583;SDS011;69053;57.338;18.700;2024-02-26T15:57:26;3.47;;;1.95;;
79583;SDS011;69053;57.338;18.700;2024-02-26T16:00:26;3.10;;;1.70;;
79583;SDS011;69053;57.338;18.700;2024-02-26T16:03:27;3.00;;;1.60;;
79583;SDS011;69053;57.338;18.700;2024-02-26T16:06:28;16.92;;;2.30;;
79583;SDS011;69053;57.338;18.700;2024-02-26T16:09:33;2.17;;;1.27;;
79583;SDS011;69053;57.338;18.700;2024-02-26T16:12:37;2.95;;;1.83;;
79583;SDS011;69053;57.338;18.700;2024-02-26T16:15:45;2.88;;;1.50;;
79583;SDS011;69053;57.338;18.700;2024-02-26T16:18:50;39.88;;;3.30;;
79583;SDS011;69053;57.338;18.700;2024-02-26T16:21:51;3.05;;;1.55;;
79583;SDS011;69053;57.338;18.700;2024-02-26T16:24:52;4.70;;;2.08;;
79583;SDS011;69053;57.338;18.700;2024-02-26T16:27:52;6.03;;;1.70;;
79583;SDS011;69053;57.338;18.700;2024-02-26T16:30:53;4.32;;;2.03;;
79583;SDS011;69053;57.338;18.700;2024-02-26T16:33:54;3.90;;;1.90;;
79583;SDS011;69053;57.338;18.700;2024-02-26T16:36:54;5.65;;;2.70;;
79583;SDS011;69053;57.338;18.700;2024-02-26T16:39:57;6.30;;;2.97;;
79583;SDS011;69053;57.338;18.700;2024-02-26T16:42:59;6.80;;;3.38;;
79583;SDS011;69053;57.338;18.700;2024-02-26T16:46:00;9.57;;;4.30;;
79583;SDS011;69053;57.338;18.700;2024-02-26T16:49:01;10.73;;;4.72;;
79583;SDS011;69053;57.338;18.700;2024-02-26T16:52:02;10.10;;;4.47;;
79583;SDS011;69053;57.338;18.700;2024-02-26T16:55:03;16.17;;;4.13;;
79583;SDS011;69053;57.338;18.700;2024-02-26T16:58:04;12.00;;;4.60;;
79583;SDS011;69053;57.338;18.700;2024-02-26T17:01:05;24.38;;;4.63;;
79583;SDS011;69053;57.338;18.700;2024-02-26T17:04:07;22.02;;;3.92;;
79583;SDS011;69053;57.338;18.700;2024-02-26T17:07:07;20.75;;;5.35;;
79583;SDS011;69053;57.338;18.700;2024-02-26T17:10:07;42.03;;;6.15;;
79583;SDS011;69053;57.338;18.700;2024-02-26T17:13:08;18.60;;;4.63;;
79583;SDS011;69053;57.338;18.700;2024-02-26T17:16:09;14.05;;;5.28;;
79583;SDS011;69053;57.338;18.700;2024-02-26T17:19:09;31.48;;;6.03;;
79583;SDS011;69053;57.338;18.700;2024-02-26T17:22:10;26.63;;;3.80;;
79583;SDS011;69053;57.338;18.700;2024-02-26T17:25:11;29.65;;;3.80;;
79583;SDS011;69053;57.338;18.700;2024-02-26T17:28:13;35.42;;;5.32;;
79583;SDS011;69053;57.338;18.700;2024-02-26T17:31:14;23.52;;;5.80;;
79583;SDS011;69053;57.338;18.700;2024-02-26T17:34:16;22.73;;;5.10;;
79583;SDS011;69053;57.338;18.700;2024-02-26T17:37:16;23.85;;;5.22;;
79583;SDS011;69053;57.338;18.700;2024-02-26T17:40:16;34.40;;;5.78;;
79583;SDS011;69053;57.338;18.700;2024-02-26T17:43:17;11.27;;;4.47;;
79583;SDS011;69053;57.338;18.700;2024-02-26T17:46:18;31.98;;;5.45;;
79583;SDS011;69053;57.338;18.700;2024-02-26T17:49:19;25.85;;;4.22;;
79583;SDS011;69053;57.338;18.700;2024-02-26T17:52:23;31.15;;;5.55;;
79583;SDS011;69053;57.338;18.700;2024-02-26T17:55:24;60.47;;;6.43;;